Huvudsida
METAR-TAF:

METAR-TAF

Flygplatser :

Kiruna, Sverige

Kiruna Airport

latitud: 67-49N, longitud: 020-20E, höjd: 452 m

Aktuellt väderrapport

Denna rapport gjordes för 42 minuter sedan, klockan 10:20 UTC
Vind 5 kt från syd/sydost
Temperatur -11°C
Fuktighet 85%
Tryck 1000 hPa
Sikt 10 km eller mer
Brutna moln på en höjd av 1300 ft
lätt snö

METAR: ESNQ 171020Z 15005KT 9999 -SN BKN013 M11/M13 Q1000

Tid: 12:02 (11:02 UTC)

Väderprognos

Denna rapport gjordes för 2 timmar och 32 minuter sedan, klockan 08:30 UTC
Prognos gäller från 17 kl. 09 UTC till 17 kl. 18 UTC
Vind 8 kt från sydost
Sikt: 8000 m
Mulet på en höjd av 1500 ft
lätt snö
Temporärt
från 17 kl. 09 UTC till 17 kl. 18 UTC
Sikt: 2000 m
Mulet på en höjd av 400 ft
snö

TAF: ESNQ 170830Z 1709/1718 14008KT 8000 -SN OVC015 TEMPO 1709/1718 2000 SN OVC004

Aktuella väderrapporter och prognoser från 4000 flygplatser (METAR- och TAF-rapporter).

De tillgängliga stationerna syns som gula och röda prickar på kartan.

För musen över prickarna för att se namnen på stationerna.

Klicka sedan för att få väderrapporter och prognoser.

För att ändra kartan: Klicka på de gröna knapparna med ett svart kors på för att zooma in; den gröna knappen med ett streck på för att zooma ut; eller på de gröna pilarna för angränsande kartor.


METAR-TAF: